createdAt,value
2018-04-20T00:00:07.450Z,12.13
2018-04-20T00:02:35.042Z,10.83
2018-04-20T00:05:02.677Z,10.00
2018-04-20T00:07:31.048Z,12.90
2018-04-20T00:09:58.633Z,10.00
2018-04-20T00:12:26.490Z,7.67
2018-04-20T00:14:54.862Z,9.17
2018-04-20T00:17:23.249Z,9.10
2018-04-20T00:19:51.635Z,11.80
2018-04-20T00:22:19.963Z,9.07
2018-04-20T00:24:47.563Z,10.50
2018-04-20T00:27:15.901Z,12.20
2018-04-20T00:29:43.503Z,8.83
2018-04-20T00:32:11.870Z,9.53
2018-04-20T00:34:40.194Z,9.80
2018-04-20T00:37:07.795Z,13.33
2018-04-20T00:39:35.438Z,10.23
2018-04-20T00:42:03.056Z,12.50
2018-04-20T00:44:30.607Z,10.77
2018-04-20T00:46:58.959Z,10.83
2018-04-20T00:49:26.528Z,17.60
2018-04-20T00:51:54.916Z,10.30
2018-04-20T00:54:24.201Z,10.77
2018-04-20T00:56:51.801Z,16.30
2018-04-20T00:59:19.362Z,11.77
2018-04-20T01:01:46.937Z,15.00
2018-04-20T01:04:14.536Z,12.10
2018-04-20T01:06:42.121Z,9.20
2018-04-20T01:09:09.734Z,11.27
2018-04-20T01:11:37.311Z,15.17
2018-04-20T01:14:04.930Z,14.27
2018-04-20T01:16:32.497Z,11.97
2018-04-20T01:19:00.094Z,17.93
2018-04-20T01:21:27.697Z,12.10
2018-04-20T01:23:55.258Z,15.47
2018-04-20T01:26:22.822Z,15.50
2018-04-20T01:28:50.436Z,14.23
2018-04-20T01:31:18.037Z,15.33
2018-04-20T01:33:45.602Z,16.30
2018-04-20T01:36:13.173Z,12.03
2018-04-20T01:38:40.732Z,12.20
2018-04-20T01:41:08.317Z,11.10
2018-04-20T01:43:35.922Z,10.23
2018-04-20T01:46:03.520Z,12.17
2018-04-20T01:48:31.109Z,13.07
2018-04-20T01:53:57.645Z,15.70
2018-04-20T01:56:25.254Z,11.40
2018-04-20T01:58:52.825Z,11.73
2018-04-20T02:01:20.473Z,15.47
2018-04-20T02:03:48.870Z,13.83
2018-04-20T02:06:16.514Z,12.37
2018-04-20T02:08:44.090Z,14.40
2018-04-20T02:11:11.690Z,13.67
2018-04-20T02:13:39.285Z,11.00
2018-04-20T02:16:07.676Z,13.37
2018-04-20T02:18:35.233Z,14.07
2018-04-20T02:21:02.844Z,13.53
2018-04-20T02:23:30.445Z,13.93
2018-04-20T02:25:58.796Z,14.37
2018-04-20T02:28:26.410Z,11.70
2018-04-20T02:30:53.971Z,13.13
2018-04-20T02:33:21.543Z,14.00
2018-04-20T02:35:49.170Z,14.47
2018-04-20T02:38:16.781Z,14.10
2018-04-20T02:40:44.413Z,16.23
2018-04-20T02:43:12.063Z,15.10
2018-04-20T02:45:39.638Z,16.23
2018-04-20T02:48:07.237Z,14.40
2018-04-20T02:50:35.383Z,12.97
2018-04-20T02:53:03.027Z,16.20
2018-04-20T02:55:30.600Z,13.13
2018-04-20T02:57:58.211Z,16.73
2018-04-20T03:00:26.634Z,12.03
2018-04-20T03:02:54.200Z,12.43
2018-04-20T03:05:21.843Z,13.47
2018-04-20T03:07:49.411Z,14.33
2018-04-20T03:10:16.976Z,13.03
2018-04-20T03:12:44.612Z,10.63
2018-04-20T03:15:12.245Z,13.30
2018-04-20T03:17:39.829Z,12.10
2018-04-20T03:20:07.438Z,18.23
2018-04-20T03:22:35.068Z,13.27
2018-04-20T03:25:02.621Z,19.13
2018-04-20T03:27:30.213Z,12.43
2018-04-20T03:29:57.859Z,19.53
2018-04-20T03:32:25.497Z,15.20
2018-04-20T03:34:53.108Z,18.07
2018-04-20T03:37:20.697Z,20.83
2018-04-20T03:39:49.109Z,20.10
2018-04-20T03:42:16.733Z,15.47
2018-04-20T03:44:44.408Z,17.03
2018-04-20T03:47:12.755Z,16.80
2018-04-20T03:49:40.385Z,14.07
2018-04-20T03:52:08.025Z,13.37
2018-04-20T03:54:35.624Z,16.17
2018-04-20T03:57:03.216Z,13.83
2018-04-20T03:59:31.563Z,15.33
2018-04-20T04:02:21.003Z,13.03
2018-04-20T04:04:48.553Z,17.73
2018-04-20T04:07:16.112Z,14.10
2018-04-20T04:09:43.721Z,10.83
2018-04-20T04:12:11.292Z,11.80
2018-04-20T04:14:38.898Z,11.57
2018-04-20T04:17:28.351Z,13.03
2018-04-20T04:20:09.337Z,15.30
2018-04-20T04:22:48.846Z,12.23
2018-04-20T04:25:28.203Z,18.17
2018-04-20T04:28:08.577Z,13.87
2018-04-20T04:30:36.128Z,11.80
2018-04-20T04:33:03.738Z,12.43
2018-04-20T04:35:31.359Z,13.03
2018-04-20T04:37:58.979Z,11.77
2018-04-20T04:40:26.654Z,11.07
2018-04-20T04:42:54.240Z,15.60
2018-04-20T04:45:21.804Z,11.60
2018-04-20T04:47:49.400Z,15.13
2018-04-20T04:50:16.962Z,12.10
2018-04-20T04:52:44.609Z,9.10
2018-04-20T04:55:12.235Z,11.00
2018-04-20T04:57:39.851Z,12.50
2018-04-20T05:00:07.466Z,9.43
2018-04-20T05:02:35.058Z,9.07
2018-04-20T05:05:02.691Z,8.70
2018-04-20T05:07:30.253Z,12.43
2018-04-20T05:09:57.868Z,10.80
2018-04-20T05:12:25.498Z,9.13
2018-04-20T05:14:53.130Z,12.63
2018-04-20T05:17:20.784Z,10.47
2018-04-20T05:19:48.375Z,7.67
2018-04-20T05:22:16.007Z,11.83
2018-04-20T05:24:43.655Z,8.47
2018-04-20T05:27:11.294Z,12.90
2018-04-20T05:29:47.326Z,19.10
2018-04-20T05:32:14.902Z,11.13
2018-04-20T05:34:42.551Z,12.93
2018-04-20T05:37:10.135Z,10.43
2018-04-20T05:39:38.502Z,12.87
2018-04-20T05:42:06.126Z,13.70
2018-04-20T05:44:33.831Z,12.40
2018-04-20T05:47:01.435Z,14.80
2018-04-20T05:49:29.073Z,13.43
2018-04-20T05:51:57.478Z,12.80
2018-04-20T05:54:25.136Z,15.73
2018-04-20T05:56:52.750Z,15.50
2018-04-20T05:59:20.369Z,11.57
2018-04-20T06:01:49.961Z,12.00
2018-04-20T06:04:17.578Z,12.50
2018-04-20T06:06:45.195Z,16.00
2018-04-20T06:09:12.845Z,13.40
2018-04-20T06:11:40.460Z,11.77
2018-04-20T06:14:08.049Z,10.93
2018-04-20T06:16:35.629Z,12.73
2018-04-20T06:19:03.269Z,13.87
2018-04-20T06:21:31.625Z,14.43
2018-04-20T06:23:59.287Z,12.77
2018-04-20T06:26:26.921Z,14.17
2018-04-20T06:28:54.521Z,16.30
2018-04-20T06:31:22.852Z,18.00
2018-04-20T06:33:50.469Z,14.13
2018-04-20T06:36:18.052Z,14.33
2018-04-20T06:38:45.672Z,11.13
2018-04-20T06:41:13.252Z,16.97
2018-04-20T06:43:41.627Z,12.70
2018-04-20T06:46:10.018Z,14.10
2018-04-20T06:48:37.627Z,12.40
2018-04-20T06:51:05.260Z,18.90
2018-04-20T06:53:32.943Z,10.70
2018-04-20T06:56:00.535Z,12.53
2018-04-20T06:58:28.914Z,13.00
2018-04-20T07:00:57.317Z,16.10
2018-04-20T07:03:24.888Z,13.63
2018-04-20T07:05:52.447Z,14.00
2018-04-20T07:08:20.102Z,11.63
2018-04-20T07:10:47.670Z,18.43
2018-04-20T07:13:15.295Z,14.33
2018-04-20T07:15:43.677Z,13.23
2018-04-20T07:18:12.010Z,10.07
2018-04-20T07:20:39.658Z,16.10
2018-04-20T07:23:07.249Z,11.13
2018-04-20T07:25:34.898Z,11.30
2018-04-20T07:28:02.489Z,13.43
2018-04-20T07:30:30.098Z,12.07
2018-04-20T07:32:57.729Z,12.63
2018-04-20T07:35:25.340Z,10.20
2018-04-20T07:37:52.934Z,12.70
2018-04-20T07:40:20.496Z,14.07
2018-04-20T07:42:48.865Z,12.00
2018-04-20T07:45:16.434Z,12.00
2018-04-20T07:47:44.799Z,10.90
2018-04-20T07:50:12.412Z,11.53
2018-04-20T07:52:40.062Z,14.40
2018-04-20T07:55:07.660Z,13.33
2018-04-20T07:57:35.273Z,11.43
2018-04-20T08:00:02.852Z,10.67
2018-04-20T08:02:30.475Z,14.83
2018-04-20T08:04:58.821Z,14.37
2018-04-20T08:07:26.442Z,7.83
2018-04-20T08:09:54.039Z,10.63
2018-04-20T08:12:21.666Z,13.60
2018-04-20T08:14:49.302Z,11.40
2018-04-20T08:17:17.615Z,8.93
2018-04-20T08:19:45.244Z,11.23
2018-04-20T08:22:13.630Z,11.60
2018-04-20T08:24:41.293Z,7.90
2018-04-20T08:27:08.894Z,10.93
2018-04-20T08:29:36.497Z,9.70
2018-04-20T08:32:04.885Z,9.50
2018-04-20T08:34:32.514Z,8.47
2018-04-20T08:37:00.105Z,7.47
2018-04-20T08:39:28.447Z,10.23
2018-04-20T08:41:56.038Z,7.70
2018-04-20T08:44:24.432Z,8.00
2018-04-20T08:46:51.999Z,7.00
2018-04-20T08:49:19.682Z,7.60
2018-04-20T08:51:47.300Z,7.80
2018-04-20T08:54:15.685Z,10.20
2018-04-20T08:56:44.053Z,7.13
2018-04-20T08:59:12.444Z,6.97
2018-04-20T09:01:40.800Z,8.13
2018-04-20T09:04:08.440Z,9.47
2018-04-20T09:06:36.055Z,8.80
2018-04-20T09:09:03.659Z,7.07
2018-04-20T09:11:31.229Z,5.63
2018-04-20T09:13:58.888Z,7.27
2018-04-20T09:16:26.506Z,8.53
2018-04-20T09:18:54.057Z,9.33
2018-04-20T09:21:21.630Z,9.13
2018-04-20T09:23:49.252Z,7.90
2018-04-20T09:26:17.605Z,11.80
2018-04-20T09:28:45.161Z,8.13
2018-04-20T09:31:12.758Z,7.03
2018-04-20T09:33:40.335Z,8.20
2018-04-20T09:36:07.891Z,7.83
2018-04-20T09:38:35.455Z,7.30
2018-04-20T09:41:03.028Z,5.80
2018-04-20T09:43:30.597Z,8.60
2018-04-20T09:45:58.182Z,10.83
2018-04-20T09:48:25.811Z,5.77
2018-04-20T09:50:53.418Z,4.67
2018-04-20T09:53:20.990Z,5.90
2018-04-20T09:55:49.314Z,5.90
2018-04-20T09:58:16.880Z,7.77
2018-04-20T10:00:44.478Z,7.90
2018-04-20T10:03:12.843Z,5.00
2018-04-20T10:05:40.465Z,4.70
2018-04-20T10:08:07.993Z,4.33
2018-04-20T10:10:35.549Z,4.13
2018-04-20T10:13:03.126Z,8.13
2018-04-20T10:15:30.717Z,7.30
2018-04-20T10:17:58.285Z,6.40
2018-04-20T10:20:25.887Z,3.53
2018-04-20T10:22:54.241Z,7.60
2018-04-20T10:25:21.814Z,7.57
2018-04-20T10:27:50.142Z,5.03
2018-04-20T10:30:18.457Z,6.23
2018-04-20T10:32:46.053Z,4.80
2018-04-20T10:35:13.648Z,8.70
2018-04-20T10:37:41.270Z,7.40
2018-04-20T10:40:08.865Z,5.10
2018-04-20T10:42:36.487Z,9.83
2018-04-20T10:45:04.053Z,8.50
2018-04-20T10:47:31.641Z,7.37
2018-04-20T10:49:59.229Z,9.20
2018-04-20T10:52:26.801Z,5.27
2018-04-20T10:54:54.397Z,5.17
2018-04-20T10:57:21.955Z,6.47
2018-04-20T10:59:49.530Z,4.10
2018-04-20T11:02:17.142Z,6.27
2018-04-20T11:04:44.708Z,4.50
2018-04-20T11:07:13.047Z,6.37
2018-04-20T11:09:40.642Z,4.47
2018-04-20T11:12:09.025Z,6.63
2018-04-20T11:14:37.330Z,9.30
2018-04-20T11:17:04.901Z,4.80
2018-04-20T11:19:32.476Z,5.23
2018-04-20T11:22:00.136Z,3.30
2018-04-20T11:24:27.686Z,6.30
2018-04-20T11:26:55.299Z,5.30
2018-04-20T11:29:23.617Z,4.03
2018-04-20T11:31:51.177Z,4.30
2018-04-20T11:34:18.724Z,3.50
2018-04-20T11:36:46.299Z,6.07
2018-04-20T11:39:13.863Z,2.70
2018-04-20T11:41:41.481Z,5.97
2018-04-20T11:44:09.802Z,4.23
2018-04-20T11:46:37.399Z,2.90
2018-04-20T11:49:04.998Z,7.83
2018-04-20T11:51:32.631Z,5.83
2018-04-20T11:54:01.063Z,2.53
2018-04-20T11:56:29.369Z,4.13
2018-04-20T11:58:56.977Z,5.53
2018-04-20T12:04:25.470Z,3.40
2018-04-20T12:06:53.039Z,4.23
2018-04-20T12:09:20.681Z,3.30
2018-04-20T12:11:49.017Z,4.20
2018-04-20T12:14:16.623Z,4.17
2018-04-20T12:16:44.225Z,4.27
2018-04-20T12:19:11.856Z,6.37
2018-04-20T12:21:39.420Z,2.73
2018-04-20T12:24:06.983Z,4.40
2018-04-20T12:26:34.557Z,3.90
2018-04-20T12:29:02.114Z,2.30
2018-04-20T12:31:29.783Z,2.93
2018-04-20T12:33:57.321Z,9.17
2018-04-20T12:36:24.856Z,5.47
2018-04-20T12:38:53.185Z,4.20
2018-04-20T12:41:20.765Z,2.70
2018-04-20T12:43:49.178Z,3.23
2018-04-20T12:46:17.577Z,3.83
2018-04-20T12:48:45.206Z,4.40
2018-04-20T12:51:13.573Z,5.00
2018-04-20T12:53:41.919Z,3.57
2018-04-20T12:56:09.473Z,5.53
2018-04-20T12:58:37.074Z,5.30
2018-04-20T13:01:05.402Z,4.00
2018-04-20T13:03:32.976Z,2.63
2018-04-20T13:06:00.574Z,3.97
2018-04-20T13:08:28.911Z,4.60
2018-04-20T13:10:56.569Z,4.53
2018-04-20T13:13:24.139Z,5.13
2018-04-20T13:15:52.728Z,4.17
2018-04-20T13:18:20.363Z,3.77
2018-04-20T13:20:47.954Z,2.43
2018-04-20T13:23:15.732Z,5.77
2018-04-20T13:25:43.336Z,4.23
2018-04-20T13:28:11.011Z,8.07
2018-04-20T13:30:38.617Z,4.00
2018-04-20T13:33:08.951Z,3.93
2018-04-20T13:35:37.327Z,3.47
2018-04-20T13:38:05.696Z,3.60
2018-04-20T13:40:33.278Z,2.17
2018-04-20T13:43:01.634Z,2.30
2018-04-20T13:45:29.184Z,1.90
2018-04-20T13:47:56.756Z,2.83
2018-04-20T13:50:24.377Z,3.67
2018-04-20T13:52:51.970Z,2.10
2018-04-20T13:55:19.538Z,2.80
2018-04-20T13:57:49.812Z,2.70
2018-04-20T14:00:17.424Z,2.73
2018-04-20T14:02:44.965Z,2.17
2018-04-20T14:05:12.537Z,3.50
2018-04-20T14:07:40.130Z,2.80
2018-04-20T14:10:07.693Z,3.00
2018-04-20T14:12:35.254Z,3.20
2018-04-20T14:15:02.788Z,2.90
2018-04-20T14:17:31.144Z,5.07
2018-04-20T14:19:58.705Z,3.00
2018-04-20T14:22:26.300Z,4.20
2018-04-20T14:24:53.872Z,3.43
2018-04-20T14:27:21.451Z,3.30
2018-04-20T14:29:49.008Z,2.67
2018-04-20T14:32:16.562Z,3.27
2018-04-20T14:34:44.114Z,5.07
2018-04-20T14:37:11.681Z,2.87
2018-04-20T14:39:39.257Z,4.27
2018-04-20T14:42:06.838Z,2.90
2018-04-20T14:44:34.401Z,3.27
2018-04-20T14:47:01.970Z,4.03
2018-04-20T14:49:30.399Z,2.47
2018-04-20T14:51:57.980Z,3.13
2018-04-20T14:54:25.551Z,3.57
2018-04-20T14:56:53.183Z,5.53
2018-04-20T14:59:20.787Z,3.17
2018-04-20T15:01:48.384Z,2.77
2018-04-20T15:04:15.938Z,5.23
2018-04-20T15:06:43.519Z,7.30
2018-04-20T15:09:11.542Z,3.00
2018-04-20T15:11:39.919Z,4.43
2018-04-20T15:14:08.246Z,4.63
2018-04-20T15:16:35.852Z,7.67
2018-04-20T15:19:03.438Z,2.97
2018-04-20T15:21:31.914Z,6.70
2018-04-20T15:24:00.267Z,3.10
2018-04-20T15:26:28.693Z,2.70
2018-04-20T15:28:56.306Z,3.27
2018-04-20T15:31:23.861Z,6.07
2018-04-20T15:33:51.432Z,4.43
2018-04-20T15:36:19.784Z,3.60
2018-04-20T15:38:47.341Z,3.83
2018-04-20T15:41:14.942Z,4.10
2018-04-20T15:43:43.307Z,8.33
2018-04-20T15:46:11.647Z,3.17
2018-04-20T15:48:39.287Z,2.90
2018-04-20T15:51:06.903Z,4.57
2018-04-20T15:53:34.458Z,4.90
2018-04-20T15:56:02.068Z,2.83
2018-04-20T15:58:29.672Z,3.13
2018-04-20T16:00:57.232Z,7.07
2018-04-20T16:03:24.788Z,5.23
2018-04-20T16:05:52.357Z,3.43
2018-04-20T16:08:19.926Z,2.33
2018-04-20T16:10:48.249Z,2.90
2018-04-20T16:13:15.854Z,4.30
2018-04-20T16:15:43.486Z,3.50
2018-04-20T16:18:11.074Z,3.63
2018-04-20T16:20:38.652Z,5.63
2018-04-20T16:26:16.312Z,3.50
2018-04-20T16:28:43.916Z,3.70
2018-04-20T16:31:12.496Z,5.43
2018-04-20T16:33:40.125Z,4.77
2018-04-20T16:36:07.735Z,4.57
2018-04-20T16:38:36.047Z,3.60
2018-04-20T16:41:03.649Z,10.37
2018-04-20T16:43:43.547Z,6.63
2018-04-20T16:46:11.129Z,2.93
2018-04-20T16:48:44.391Z,5.03
2018-04-20T16:51:11.970Z,4.00
2018-04-20T16:53:39.542Z,5.10
2018-04-20T16:56:11.843Z,4.07
2018-04-20T16:58:39.434Z,8.00
2018-04-20T17:01:07.033Z,4.93
2018-04-20T17:15:32.051Z,9.00
2018-04-20T17:18:00.455Z,8.17
2018-04-20T17:20:28.077Z,4.07
2018-04-20T17:22:55.658Z,7.20
2018-04-20T17:25:23.961Z,10.63
2018-04-20T17:27:51.501Z,10.43
2018-04-20T17:30:19.805Z,8.77
2018-04-20T17:32:47.398Z,6.43
2018-04-20T17:35:14.972Z,9.43
2018-04-20T17:37:42.557Z,12.60
2018-04-20T17:40:10.951Z,9.10
2018-04-20T17:42:38.570Z,14.47
2018-04-20T17:45:06.197Z,8.37
2018-04-20T17:47:33.799Z,8.03
2018-04-20T17:50:02.173Z,10.43
2018-04-20T17:52:29.774Z,8.73
2018-04-20T17:54:57.394Z,8.20
2018-04-20T17:57:25.023Z,12.67
2018-04-20T18:00:13.335Z,10.30
2018-04-20T18:02:41.009Z,12.03
2018-04-20T18:05:08.612Z,9.47
2018-04-20T18:07:36.181Z,10.13
2018-04-20T18:10:03.761Z,13.70
2018-04-20T18:12:32.101Z,16.07
2018-04-20T18:15:00.708Z,16.03
2018-04-20T18:17:29.066Z,9.20
2018-04-20T18:19:56.651Z,8.57
2018-04-20T18:22:25.032Z,8.13
2018-04-20T18:25:10.043Z,12.17
2018-04-20T18:27:37.615Z,13.83
2018-04-20T18:30:05.214Z,10.03
2018-04-20T18:32:33.548Z,16.00
2018-04-20T18:35:01.903Z,15.57
2018-04-20T18:37:29.524Z,14.13
2018-04-20T18:39:57.151Z,15.77
2018-04-20T18:51:23.201Z,10.17
2018-04-20T18:53:50.806Z,7.50
2018-04-20T18:56:35.707Z,12.13
2018-04-20T18:59:04.077Z,14.83
2018-04-20T19:01:31.722Z,12.53
2018-04-20T19:03:59.278Z,10.33
2018-04-20T19:09:27.235Z,8.00
2018-04-20T19:11:58.202Z,13.30
2018-04-20T19:14:25.856Z,8.10
2018-04-20T19:16:53.469Z,17.20
2018-04-20T19:19:21.060Z,10.67
2018-04-20T19:21:53.274Z,12.23
2018-04-20T19:24:25.107Z,17.53
2018-04-20T19:26:52.695Z,11.93
2018-04-20T19:29:21.107Z,15.93
2018-04-20T19:31:50.649Z,12.27
2018-04-20T19:34:18.289Z,12.53
2018-04-20T19:39:52.199Z,10.93
2018-04-20T19:42:19.825Z,12.47
2018-04-20T19:45:12.900Z,10.17
2018-04-20T19:47:42.282Z,8.67
2018-04-20T19:50:09.893Z,9.73
2018-04-20T19:52:37.523Z,11.90
2018-04-20T19:55:05.927Z,17.07
2018-04-20T19:57:34.425Z,12.33
2018-04-20T20:00:02.051Z,9.03
2018-04-20T20:02:29.622Z,11.20
2018-04-20T20:04:57.196Z,10.87
2018-04-20T20:07:24.812Z,13.50
2018-04-20T20:09:53.228Z,15.60
2018-04-20T20:12:20.881Z,6.73
2018-04-20T20:14:48.466Z,16.90
2018-04-20T20:20:18.303Z,13.13
2018-04-20T20:22:45.900Z,14.03
2018-04-20T20:25:14.299Z,13.50
2018-04-20T20:27:41.931Z,17.57
2018-04-20T20:30:09.532Z,13.60
2018-04-20T20:32:37.160Z,17.10
2018-04-20T20:35:04.803Z,15.03
2018-04-20T20:37:32.425Z,12.37
2018-04-20T20:40:00.017Z,15.03
2018-04-20T20:42:27.588Z,14.07
2018-04-20T20:44:55.198Z,11.67
2018-04-20T20:47:22.764Z,15.50
2018-04-20T20:49:51.166Z,13.73
2018-04-20T20:52:18.771Z,12.40
2018-04-20T20:54:47.157Z,13.47
2018-04-20T20:57:15.487Z,13.40
2018-04-20T20:59:43.067Z,11.00
2018-04-20T21:02:10.689Z,13.83
2018-04-20T21:04:38.299Z,11.70
2018-04-20T21:07:05.895Z,11.23
2018-04-20T21:09:33.521Z,10.40
2018-04-20T21:12:01.130Z,15.50
2018-04-20T21:14:28.694Z,11.27
2018-04-20T21:16:56.291Z,10.83
2018-04-20T21:19:23.870Z,10.20
2018-04-20T21:21:51.451Z,12.63
2018-04-20T21:24:19.066Z,10.27
2018-04-20T21:26:46.625Z,19.30
2018-04-20T21:29:14.225Z,11.40
2018-04-20T21:31:41.782Z,14.37
2018-04-20T21:34:09.370Z,11.60
2018-04-20T21:36:36.974Z,12.23
2018-04-20T21:39:04.555Z,10.07
2018-04-20T21:41:32.929Z,11.03
2018-04-20T21:44:00.558Z,15.93
2018-04-20T21:46:28.193Z,12.13
2018-04-20T21:48:55.748Z,12.23
2018-04-20T21:51:23.386Z,9.83
2018-04-20T21:53:50.978Z,14.33
2018-04-20T21:56:18.570Z,10.30
2018-04-20T21:58:46.188Z,11.43
2018-04-20T22:01:34.971Z,9.53
2018-04-20T22:04:02.551Z,10.43
2018-04-20T22:06:30.166Z,10.53
2018-04-20T22:08:57.726Z,8.93
2018-04-20T22:11:25.271Z,10.23
2018-04-20T22:13:52.879Z,9.93
2018-04-20T22:16:20.450Z,13.20
2018-04-20T22:18:48.066Z,14.13
2018-04-20T22:21:15.701Z,18.63
2018-04-20T22:23:43.328Z,17.10
2018-04-20T22:26:10.967Z,13.70
2018-04-20T22:28:38.540Z,22.77
2018-04-20T22:31:06.146Z,15.23
2018-04-20T22:33:33.720Z,13.80
2018-04-20T22:36:01.321Z,16.23
2018-04-20T22:38:28.890Z,17.33
2018-04-20T22:40:56.526Z,20.87
2018-04-20T22:43:24.113Z,17.60
2018-04-20T22:45:51.718Z,20.73
2018-04-20T22:48:19.309Z,17.77
2018-04-20T22:50:46.897Z,18.63
2018-04-20T22:53:15.270Z,16.93
2018-04-20T22:55:42.879Z,15.57
2018-04-20T22:58:11.276Z,14.83
2018-04-20T23:00:38.929Z,12.50
2018-04-20T23:03:06.545Z,10.73
2018-04-20T23:05:34.144Z,13.70
2018-04-20T23:08:01.763Z,12.33
2018-04-20T23:10:30.118Z,15.50
2018-04-20T23:12:57.727Z,14.87
2018-04-20T23:15:25.336Z,12.77
2018-04-20T23:17:52.958Z,12.03
2018-04-20T23:20:20.518Z,15.13
2018-04-20T23:22:48.878Z,14.23
2018-04-20T23:25:16.502Z,13.70
2018-04-20T23:27:44.049Z,11.40
2018-04-20T23:30:11.685Z,13.33
2018-04-20T23:32:39.245Z,14.90
2018-04-20T23:35:06.842Z,17.50
2018-04-20T23:37:34.419Z,11.77
2018-04-20T23:40:02.749Z,26.40
2018-04-20T23:42:30.345Z,18.93
2018-04-20T23:44:57.927Z,13.53
2018-04-20T23:47:26.265Z,12.47
2018-04-20T23:49:53.875Z,12.83
2018-04-20T23:52:21.488Z,19.27
2018-04-20T23:54:49.109Z,17.00
2018-04-20T23:57:17.475Z,21.20
2018-04-20T23:59:45.063Z,22.67
